sensor_id;sensor_type;location;lat;lon;timestamp;temperature;humidity
12704;DHT22;6416;52.182;7.650;2023-05-09T00:00:48;18.90;60.50
12704;DHT22;6416;52.182;7.650;2023-05-09T00:03:14;18.90;60.60
12704;DHT22;6416;52.182;7.650;2023-05-09T00:05:40;18.90;60.80
12704;DHT22;6416;52.182;7.650;2023-05-09T00:08:06;18.80;60.90
12704;DHT22;6416;52.182;7.650;2023-05-09T00:10:31;18.80;61.10
12704;DHT22;6416;52.182;7.650;2023-05-09T00:12:57;18.80;61.10
12704;DHT22;6416;52.182;7.650;2023-05-09T00:15:22;18.80;61.10
12704;DHT22;6416;52.182;7.650;2023-05-09T00:17:48;18.70;61.50
12704;DHT22;6416;52.182;7.650;2023-05-09T00:20:13;18.70;61.40
12704;DHT22;6416;52.182;7.650;2023-05-09T00:22:39;18.70;61.80
12704;DHT22;6416;52.182;7.650;2023-05-09T00:25:06;18.70;61.70
12704;DHT22;6416;52.182;7.650;2023-05-09T00:27:31;18.60;61.90
12704;DHT22;6416;52.182;7.650;2023-05-09T00:29:58;18.70;62.10
12704;DHT22;6416;52.182;7.650;2023-05-09T00:32:24;18.70;62.40
12704;DHT22;6416;52.182;7.650;2023-05-09T00:34:49;18.60;62.20
12704;DHT22;6416;52.182;7.650;2023-05-09T00:37:15;18.60;62.40
12704;DHT22;6416;52.182;7.650;2023-05-09T00:39:40;18.50;62.60
12704;DHT22;6416;52.182;7.650;2023-05-09T00:42:06;18.50;62.80
12704;DHT22;6416;52.182;7.650;2023-05-09T00:44:31;18.50;63.00
12704;DHT22;6416;52.182;7.650;2023-05-09T00:46:57;18.60;63.10
12704;DHT22;6416;52.182;7.650;2023-05-09T00:49:22;18.50;63.00
12704;DHT22;6416;52.182;7.650;2023-05-09T00:51:48;18.50;62.90
12704;DHT22;6416;52.182;7.650;2023-05-09T00:54:14;18.50;63.00
12704;DHT22;6416;52.182;7.650;2023-05-09T00:56:39;18.50;63.20
12704;DHT22;6416;52.182;7.650;2023-05-09T00:59:05;18.40;63.10
12704;DHT22;6416;52.182;7.650;2023-05-09T01:01:30;18.40;63.30
12704;DHT22;6416;52.182;7.650;2023-05-09T01:03:56;18.40;63.40
12704;DHT22;6416;52.182;7.650;2023-05-09T01:20:02;18.40;65.20
12704;DHT22;6416;52.182;7.650;2023-05-09T01:22:35;18.40;64.40
12704;DHT22;6416;52.182;7.650;2023-05-09T01:25:39;18.30;63.80
12704;DHT22;6416;52.182;7.650;2023-05-09T01:31:13;18.30;65.30
12704;DHT22;6416;52.182;7.650;2023-05-09T01:33:41;18.30;63.60
12704;DHT22;6416;52.182;7.650;2023-05-09T01:36:14;18.20;64.00
12704;DHT22;6416;52.182;7.650;2023-05-09T01:38:41;18.20;64.10
12704;DHT22;6416;52.182;7.650;2023-05-09T01:41:09;18.20;64.10
12704;DHT22;6416;52.182;7.650;2023-05-09T01:43:37;18.20;64.20
12704;DHT22;6416;52.182;7.650;2023-05-09T01:46:04;18.10;65.10
12704;DHT22;6416;52.182;7.650;2023-05-09T01:48:30;18.10;64.30
12704;DHT22;6416;52.182;7.650;2023-05-09T01:50:56;18.10;64.30
12704;DHT22;6416;52.182;7.650;2023-05-09T01:53:23;18.10;64.50
12704;DHT22;6416;52.182;7.650;2023-05-09T01:55:50;18.00;64.50
12704;DHT22;6416;52.182;7.650;2023-05-09T01:58:17;18.00;64.40
12704;DHT22;6416;52.182;7.650;2023-05-09T02:00:43;18.00;64.40
12704;DHT22;6416;52.182;7.650;2023-05-09T02:03:09;18.00;64.50
12704;DHT22;6416;52.182;7.650;2023-05-09T02:05:35;18.00;64.50
12704;DHT22;6416;52.182;7.650;2023-05-09T02:08:01;18.00;64.70
12704;DHT22;6416;52.182;7.650;2023-05-09T02:10:27;18.00;64.80
12704;DHT22;6416;52.182;7.650;2023-05-09T02:12:54;17.90;64.70
12704;DHT22;6416;52.182;7.650;2023-05-09T02:15:20;18.00;65.00
12704;DHT22;6416;52.182;7.650;2023-05-09T02:17:46;17.90;64.90
12704;DHT22;6416;52.182;7.650;2023-05-09T02:20:11;17.90;64.90
12704;DHT22;6416;52.182;7.650;2023-05-09T02:22:40;17.90;65.00
12704;DHT22;6416;52.182;7.650;2023-05-09T02:25:10;17.90;65.10
12704;DHT22;6416;52.182;7.650;2023-05-09T02:27:37;17.80;65.20
12704;DHT22;6416;52.182;7.650;2023-05-09T02:30:07;17.80;65.30
12704;DHT22;6416;52.182;7.650;2023-05-09T02:32:33;17.80;65.50
12704;DHT22;6416;52.182;7.650;2023-05-09T02:35:00;17.90;65.40
12704;DHT22;6416;52.182;7.650;2023-05-09T02:37:26;17.80;65.40
12704;DHT22;6416;52.182;7.650;2023-05-09T02:39:52;17.70;65.20
12704;DHT22;6416;52.182;7.650;2023-05-09T02:42:22;17.70;65.20
12704;DHT22;6416;52.182;7.650;2023-05-09T02:44:48;17.80;65.50
12704;DHT22;6416;52.182;7.650;2023-05-09T02:47:13;17.60;65.10
12704;DHT22;6416;52.182;7.650;2023-05-09T02:49:39;17.60;65.20
12704;DHT22;6416;52.182;7.650;2023-05-09T02:52:04;17.70;65.30
12704;DHT22;6416;52.182;7.650;2023-05-09T02:54:30;17.60;65.30
12704;DHT22;6416;52.182;7.650;2023-05-09T02:56:55;17.50;65.20
12704;DHT22;6416;52.182;7.650;2023-05-09T02:59:21;17.50;65.10
12704;DHT22;6416;52.182;7.650;2023-05-09T03:01:46;17.60;65.40
12704;DHT22;6416;52.182;7.650;2023-05-09T03:04:12;17.60;65.40
12704;DHT22;6416;52.182;7.650;2023-05-09T03:06:37;17.40;65.10
12704;DHT22;6416;52.182;7.650;2023-05-09T03:09:03;17.40;65.20
12704;DHT22;6416;52.182;7.650;2023-05-09T03:11:29;17.50;65.40
12704;DHT22;6416;52.182;7.650;2023-05-09T03:13:54;17.40;65.30
12704;DHT22;6416;52.182;7.650;2023-05-09T03:16:19;17.50;65.50
12704;DHT22;6416;52.182;7.650;2023-05-09T03:18:45;17.40;65.40
12704;DHT22;6416;52.182;7.650;2023-05-09T03:21:10;17.40;65.40
12704;DHT22;6416;52.182;7.650;2023-05-09T03:23:36;17.40;65.50
12704;DHT22;6416;52.182;7.650;2023-05-09T03:26:01;17.40;65.60
12704;DHT22;6416;52.182;7.650;2023-05-09T03:28:27;17.40;65.40
12704;DHT22;6416;52.182;7.650;2023-05-09T03:30:52;17.40;65.70
12704;DHT22;6416;52.182;7.650;2023-05-09T03:33:18;17.50;65.60
12704;DHT22;6416;52.182;7.650;2023-05-09T03:35:43;17.50;65.60
12704;DHT22;6416;52.182;7.650;2023-05-09T03:38:10;17.40;65.50
12704;DHT22;6416;52.182;7.650;2023-05-09T03:40:36;17.40;65.50
12704;DHT22;6416;52.182;7.650;2023-05-09T03:43:02;17.50;65.50
12704;DHT22;6416;52.182;7.650;2023-05-09T03:45:27;17.40;65.30
12704;DHT22;6416;52.182;7.650;2023-05-09T03:47:53;17.40;66.10
12704;DHT22;6416;52.182;7.650;2023-05-09T03:50:18;17.40;65.30
12704;DHT22;6416;52.182;7.650;2023-05-09T03:52:43;17.50;65.40
12704;DHT22;6416;52.182;7.650;2023-05-09T03:55:09;17.40;65.40
12704;DHT22;6416;52.182;7.650;2023-05-09T03:57:35;17.40;65.40
12704;DHT22;6416;52.182;7.650;2023-05-09T04:00:01;17.40;65.70
12704;DHT22;6416;52.182;7.650;2023-05-09T04:02:27;17.50;65.70
12704;DHT22;6416;52.182;7.650;2023-05-09T04:04:52;17.30;65.50
12704;DHT22;6416;52.182;7.650;2023-05-09T04:07:18;17.40;65.80
12704;DHT22;6416;52.182;7.650;2023-05-09T04:09:44;17.30;65.60
12704;DHT22;6416;52.182;7.650;2023-05-09T04:12:09;17.30;65.70
12704;DHT22;6416;52.182;7.650;2023-05-09T04:14:35;17.30;66.40
12704;DHT22;6416;52.182;7.650;2023-05-09T04:17:00;17.30;65.70
12704;DHT22;6416;52.182;7.650;2023-05-09T04:19:26;17.30;65.80
12704;DHT22;6416;52.182;7.650;2023-05-09T04:21:51;17.30;65.80
12704;DHT22;6416;52.182;7.650;2023-05-09T04:24:17;17.30;65.80
12704;DHT22;6416;52.182;7.650;2023-05-09T04:26:42;17.40;65.80
12704;DHT22;6416;52.182;7.650;2023-05-09T04:29:08;17.50;65.80
12704;DHT22;6416;52.182;7.650;2023-05-09T04:31:33;17.40;65.60
12704;DHT22;6416;52.182;7.650;2023-05-09T04:33:59;17.40;65.60
12704;DHT22;6416;52.182;7.650;2023-05-09T04:36:24;17.50;65.80
12704;DHT22;6416;52.182;7.650;2023-05-09T04:38:50;17.50;65.80
12704;DHT22;6416;52.182;7.650;2023-05-09T04:41:15;17.50;65.80
12704;DHT22;6416;52.182;7.650;2023-05-09T04:43:41;17.50;65.70
12704;DHT22;6416;52.182;7.650;2023-05-09T04:46:06;17.60;65.80
12704;DHT22;6416;52.182;7.650;2023-05-09T04:48:33;17.70;65.90
12704;DHT22;6416;52.182;7.650;2023-05-09T04:50:58;17.60;65.70
12704;DHT22;6416;52.182;7.650;2023-05-09T04:53:24;17.70;65.60
12704;DHT22;6416;52.182;7.650;2023-05-09T04:55:49;17.70;65.50
12704;DHT22;6416;52.182;7.650;2023-05-09T04:58:15;17.70;65.60
12704;DHT22;6416;52.182;7.650;2023-05-09T05:00:40;17.70;65.50
12704;DHT22;6416;52.182;7.650;2023-05-09T05:03:06;17.90;66.40
12704;DHT22;6416;52.182;7.650;2023-05-09T05:05:31;17.70;65.40
12704;DHT22;6416;52.182;7.650;2023-05-09T05:07:57;17.80;65.50
12704;DHT22;6416;52.182;7.650;2023-05-09T05:10:22;17.80;65.40
12704;DHT22;6416;52.182;7.650;2023-05-09T05:12:47;17.80;65.50
12704;DHT22;6416;52.182;7.650;2023-05-09T05:15:13;18.00;65.80
12704;DHT22;6416;52.182;7.650;2023-05-09T05:17:39;18.00;65.90
12704;DHT22;6416;52.182;7.650;2023-05-09T05:20:05;18.10;66.00
12704;DHT22;6416;52.182;7.650;2023-05-09T05:22:31;18.10;66.00
12704;DHT22;6416;52.182;7.650;2023-05-09T05:24:57;18.30;66.00
12704;DHT22;6416;52.182;7.650;2023-05-09T05:27:22;18.40;65.90
12704;DHT22;6416;52.182;7.650;2023-05-09T05:29:48;18.30;65.60
12704;DHT22;6416;52.182;7.650;2023-05-09T05:32:13;18.40;65.50
12704;DHT22;6416;52.182;7.650;2023-05-09T05:34:39;18.50;65.60
12704;DHT22;6416;52.182;7.650;2023-05-09T05:37:04;18.60;65.70
12704;DHT22;6416;52.182;7.650;2023-05-09T05:39:32;18.50;65.50
12704;DHT22;6416;52.182;7.650;2023-05-09T05:41:58;18.70;65.50
12704;DHT22;6416;52.182;7.650;2023-05-09T05:44:24;18.70;65.60
12704;DHT22;6416;52.182;7.650;2023-05-09T05:46:49;18.70;65.60
12704;DHT22;6416;52.182;7.650;2023-05-09T05:49:15;18.80;65.40
12704;DHT22;6416;52.182;7.650;2023-05-09T05:51:40;18.90;65.70
12704;DHT22;6416;52.182;7.650;2023-05-09T05:54:08;18.90;65.60
12704;DHT22;6416;52.182;7.650;2023-05-09T05:56:34;19.00;65.60
12704;DHT22;6416;52.182;7.650;2023-05-09T05:58:59;19.00;65.40
12704;DHT22;6416;52.182;7.650;2023-05-09T06:01:25;19.10;65.40
12704;DHT22;6416;52.182;7.650;2023-05-09T06:03:50;19.10;65.20
12704;DHT22;6416;52.182;7.650;2023-05-09T06:06:16;19.20;65.30
12704;DHT22;6416;52.182;7.650;2023-05-09T06:08:41;19.20;65.20
12704;DHT22;6416;52.182;7.650;2023-05-09T06:11:10;19.30;64.60
12704;DHT22;6416;52.182;7.650;2023-05-09T06:13:44;19.40;65.40
12704;DHT22;6416;52.182;7.650;2023-05-09T06:16:09;19.30;65.40
12704;DHT22;6416;52.182;7.650;2023-05-09T06:18:35;19.40;65.30
12704;DHT22;6416;52.182;7.650;2023-05-09T06:21:01;19.30;65.10
12704;DHT22;6416;52.182;7.650;2023-05-09T06:23:26;19.50;65.30
12704;DHT22;6416;52.182;7.650;2023-05-09T06:25:52;19.50;65.40
12704;DHT22;6416;52.182;7.650;2023-05-09T06:28:17;19.60;65.30
12704;DHT22;6416;52.182;7.650;2023-05-09T06:30:43;19.70;65.40
12704;DHT22;6416;52.182;7.650;2023-05-09T06:33:08;19.80;65.30
12704;DHT22;6416;52.182;7.650;2023-05-09T06:35:33;19.70;64.90
12704;DHT22;6416;52.182;7.650;2023-05-09T06:37:59;19.80;64.90
12704;DHT22;6416;52.182;7.650;2023-05-09T06:40:24;19.90;64.90
12704;DHT22;6416;52.182;7.650;2023-05-09T06:42:50;19.80;64.70
12704;DHT22;6416;52.182;7.650;2023-05-09T06:45:15;19.90;64.60
12704;DHT22;6416;52.182;7.650;2023-05-09T06:47:41;19.80;64.40
12704;DHT22;6416;52.182;7.650;2023-05-09T06:50:08;19.80;64.30
12704;DHT22;6416;52.182;7.650;2023-05-09T06:52:33;19.80;64.40
12704;DHT22;6416;52.182;7.650;2023-05-09T06:54:59;19.80;64.30
12704;DHT22;6416;52.182;7.650;2023-05-09T06:57:24;19.80;64.40
12704;DHT22;6416;52.182;7.650;2023-05-09T06:59:50;19.80;64.50
12704;DHT22;6416;52.182;7.650;2023-05-09T07:02:16;19.70;64.50
12704;DHT22;6416;52.182;7.650;2023-05-09T07:04:41;19.70;64.60
12704;DHT22;6416;52.182;7.650;2023-05-09T07:07:06;19.70;64.90
12704;DHT22;6416;52.182;7.650;2023-05-09T07:09:32;19.80;65.10
12704;DHT22;6416;52.182;7.650;2023-05-09T07:11:58;19.90;65.30
12704;DHT22;6416;52.182;7.650;2023-05-09T07:14:24;19.80;65.60
12704;DHT22;6416;52.182;7.650;2023-05-09T07:16:50;20.00;65.90
12704;DHT22;6416;52.182;7.650;2023-05-09T07:19:15;20.10;66.20
12704;DHT22;6416;52.182;7.650;2023-05-09T07:21:40;20.20;66.30
12704;DHT22;6416;52.182;7.650;2023-05-09T07:24:06;20.40;66.50
12704;DHT22;6416;52.182;7.650;2023-05-09T07:26:31;20.50;66.60
12704;DHT22;6416;52.182;7.650;2023-05-09T07:28:57;20.80;66.60
12704;DHT22;6416;52.182;7.650;2023-05-09T07:31:22;20.90;66.20
12704;DHT22;6416;52.182;7.650;2023-05-09T07:33:48;21.00;65.70
12704;DHT22;6416;52.182;7.650;2023-05-09T07:36:13;21.20;65.50
12704;DHT22;6416;52.182;7.650;2023-05-09T07:38:39;21.30;65.20
12704;DHT22;6416;52.182;7.650;2023-05-09T07:41:04;21.40;64.90
12704;DHT22;6416;52.182;7.650;2023-05-09T07:43:30;21.40;64.60
12704;DHT22;6416;52.182;7.650;2023-05-09T07:45:55;21.50;64.40
12704;DHT22;6416;52.182;7.650;2023-05-09T07:48:21;21.50;64.20
12704;DHT22;6416;52.182;7.650;2023-05-09T07:50:46;21.50;64.10
12704;DHT22;6416;52.182;7.650;2023-05-09T07:53:12;21.50;64.10
12704;DHT22;6416;52.182;7.650;2023-05-09T07:55:37;21.50;64.00
12704;DHT22;6416;52.182;7.650;2023-05-09T07:58:03;21.50;64.00
12704;DHT22;6416;52.182;7.650;2023-05-09T08:00:28;21.60;64.10
12704;DHT22;6416;52.182;7.650;2023-05-09T08:02:53;21.50;64.10
12704;DHT22;6416;52.182;7.650;2023-05-09T08:05:19;21.50;64.20
12704;DHT22;6416;52.182;7.650;2023-05-09T08:07:45;21.50;64.30
12704;DHT22;6416;52.182;7.650;2023-05-09T08:10:10;21.60;64.30
12704;DHT22;6416;52.182;7.650;2023-05-09T08:12:36;21.60;64.20
12704;DHT22;6416;52.182;7.650;2023-05-09T08:15:02;21.60;64.00
12704;DHT22;6416;52.182;7.650;2023-05-09T08:17:27;21.60;63.90
12704;DHT22;6416;52.182;7.650;2023-05-09T08:19:53;21.60;63.90
12704;DHT22;6416;52.182;7.650;2023-05-09T08:22:19;21.60;63.90
12704;DHT22;6416;52.182;7.650;2023-05-09T08:24:45;21.50;63.80
12704;DHT22;6416;52.182;7.650;2023-05-09T08:27:12;21.40;63.80
12704;DHT22;6416;52.182;7.650;2023-05-09T08:29:37;21.40;63.80
12704;DHT22;6416;52.182;7.650;2023-05-09T08:32:03;21.30;63.90
12704;DHT22;6416;52.182;7.650;2023-05-09T08:34:29;21.30;64.10
12704;DHT22;6416;52.182;7.650;2023-05-09T08:36:54;21.30;64.20
12704;DHT22;6416;52.182;7.650;2023-05-09T08:39:21;21.20;64.20
12704;DHT22;6416;52.182;7.650;2023-05-09T08:41:46;21.30;64.70
12704;DHT22;6416;52.182;7.650;2023-05-09T08:44:12;21.30;64.90
12704;DHT22;6416;52.182;7.650;2023-05-09T08:46:41;21.30;65.20
12704;DHT22;6416;52.182;7.650;2023-05-09T08:49:07;21.50;65.50
12704;DHT22;6416;52.182;7.650;2023-05-09T08:54:01;21.50;65.20
12704;DHT22;6416;52.182;7.650;2023-05-09T08:56:28;21.50;65.20
12704;DHT22;6416;52.182;7.650;2023-05-09T08:58:54;21.60;65.10
12704;DHT22;6416;52.182;7.650;2023-05-09T09:01:20;21.60;65.00
12704;DHT22;6416;52.182;7.650;2023-05-09T09:03:47;21.60;64.90
12704;DHT22;6416;52.182;7.650;2023-05-09T09:06:13;21.60;64.70
12704;DHT22;6416;52.182;7.650;2023-05-09T09:08:39;21.60;64.80
12704;DHT22;6416;52.182;7.650;2023-05-09T09:11:04;21.70;64.90
12704;DHT22;6416;52.182;7.650;2023-05-09T09:13:31;21.70;65.00
12704;DHT22;6416;52.182;7.650;2023-05-09T09:16:01;21.80;65.30
12704;DHT22;6416;52.182;7.650;2023-05-09T09:18:28;21.90;65.50
12704;DHT22;6416;52.182;7.650;2023-05-09T09:21:07;22.00;65.40
12704;DHT22;6416;52.182;7.650;2023-05-09T09:23:33;22.10;65.40
12704;DHT22;6416;52.182;7.650;2023-05-09T09:26:02;22.30;65.70
12704;DHT22;6416;52.182;7.650;2023-05-09T09:28:28;22.40;65.60
12704;DHT22;6416;52.182;7.650;2023-05-09T09:30:53;22.60;65.30
12704;DHT22;6416;52.182;7.650;2023-05-09T09:33:20;22.70;64.70
12704;DHT22;6416;52.182;7.650;2023-05-09T09:35:50;22.80;64.50
12704;DHT22;6416;52.182;7.650;2023-05-09T09:38:17;23.00;64.40
12704;DHT22;6416;52.182;7.650;2023-05-09T09:40:57;23.10;64.60
12704;DHT22;6416;52.182;7.650;2023-05-09T09:43:27;23.30;64.10
12704;DHT22;6416;52.182;7.650;2023-05-09T09:45:53;23.40;64.10
12704;DHT22;6416;52.182;7.650;2023-05-09T09:48:26;23.50;64.30
12704;DHT22;6416;52.182;7.650;2023-05-09T09:50:54;23.70;63.90
12704;DHT22;6416;52.182;7.650;2023-05-09T09:53:20;23.80;63.90
12704;DHT22;6416;52.182;7.650;2023-05-09T09:55:51;24.00;63.70
12704;DHT22;6416;52.182;7.650;2023-05-09T09:58:18;24.10;63.00
12704;DHT22;6416;52.182;7.650;2023-05-09T10:00:43;24.20;62.70
12704;DHT22;6416;52.182;7.650;2023-05-09T10:03:13;24.30;62.20
12704;DHT22;6416;52.182;7.650;2023-05-09T10:05:39;24.30;61.40
12704;DHT22;6416;52.182;7.650;2023-05-09T10:08:05;24.30;61.00
12704;DHT22;6416;52.182;7.650;2023-05-09T10:10:35;24.20;60.90
12704;DHT22;6416;52.182;7.650;2023-05-09T10:13:03;24.20;60.50
12704;DHT22;6416;52.182;7.650;2023-05-09T10:15:30;24.10;60.30
12704;DHT22;6416;52.182;7.650;2023-05-09T10:17:57;24.00;60.30
12704;DHT22;6416;52.182;7.650;2023-05-09T10:20:23;24.00;60.70
12704;DHT22;6416;52.182;7.650;2023-05-09T10:22:50;23.90;60.90
12704;DHT22;6416;52.182;7.650;2023-05-09T10:25:25;23.90;61.10
12704;DHT22;6416;52.182;7.650;2023-05-09T10:27:53;24.00;61.30
12704;DHT22;6416;52.182;7.650;2023-05-09T10:30:30;24.00;61.10
12704;DHT22;6416;52.182;7.650;2023-05-09T10:33:04;24.00;61.30
12704;DHT22;6416;52.182;7.650;2023-05-09T10:35:35;24.10;61.60
12704;DHT22;6416;52.182;7.650;2023-05-09T10:38:01;24.20;61.40
12704;DHT22;6416;52.182;7.650;2023-05-09T10:40:27;24.30;62.00
12704;DHT22;6416;52.182;7.650;2023-05-09T10:42:54;24.30;61.20
12704;DHT22;6416;52.182;7.650;2023-05-09T10:45:22;24.30;60.70
12704;DHT22;6416;52.182;7.650;2023-05-09T10:47:49;24.40;60.50
12704;DHT22;6416;52.182;7.650;2023-05-09T10:50:16;24.40;60.70
12704;DHT22;6416;52.182;7.650;2023-05-09T10:53:11;24.40;60.60
12704;DHT22;6416;52.182;7.650;2023-05-09T10:55:46;24.40;60.40
12704;DHT22;6416;52.182;7.650;2023-05-09T11:00:50;24.50;59.90
12704;DHT22;6416;52.182;7.650;2023-05-09T11:03:16;24.50;60.20
12704;DHT22;6416;52.182;7.650;2023-05-09T11:05:42;24.60;60.30
12704;DHT22;6416;52.182;7.650;2023-05-09T11:08:21;24.70;59.90
12704;DHT22;6416;52.182;7.650;2023-05-09T11:10:47;24.80;60.00
12704;DHT22;6416;52.182;7.650;2023-05-09T11:13:12;25.00;59.90
12704;DHT22;6416;52.182;7.650;2023-05-09T11:16:03;25.10;59.60
12704;DHT22;6416;52.182;7.650;2023-05-09T11:18:32;25.30;58.00
12704;DHT22;6416;52.182;7.650;2023-05-09T11:20:58;25.50;58.90
12704;DHT22;6416;52.182;7.650;2023-05-09T11:23:29;25.60;58.30
12704;DHT22;6416;52.182;7.650;2023-05-09T11:26:06;25.80;57.60
12704;DHT22;6416;52.182;7.650;2023-05-09T11:28:34;25.90;57.40
12704;DHT22;6416;52.182;7.650;2023-05-09T11:31:17;26.00;58.00
12704;DHT22;6416;52.182;7.650;2023-05-09T11:33:45;26.10;57.10
12704;DHT22;6416;52.182;7.650;2023-05-09T11:39:05;26.40;56.00
12704;DHT22;6416;52.182;7.650;2023-05-09T11:41:46;26.50;55.90
12704;DHT22;6416;52.182;7.650;2023-05-09T11:44:14;26.60;55.40
12704;DHT22;6416;52.182;7.650;2023-05-09T11:46:40;26.70;55.20
12704;DHT22;6416;52.182;7.650;2023-05-09T11:49:06;26.80;55.30
12704;DHT22;6416;52.182;7.650;2023-05-09T11:51:35;26.80;55.30
12704;DHT22;6416;52.182;7.650;2023-05-09T11:54:00;27.00;54.70
12704;DHT22;6416;52.182;7.650;2023-05-09T11:56:26;27.00;55.00
12704;DHT22;6416;52.182;7.650;2023-05-09T11:58:54;27.10;55.10
12704;DHT22;6416;52.182;7.650;2023-05-09T12:01:19;27.20;54.70
12704;DHT22;6416;52.182;7.650;2023-05-09T12:03:46;27.30;54.80
12704;DHT22;6416;52.182;7.650;2023-05-09T12:06:16;27.30;54.40
12704;DHT22;6416;52.182;7.650;2023-05-09T12:08:45;27.40;53.20
12704;DHT22;6416;52.182;7.650;2023-05-09T12:11:11;27.40;52.80
12704;DHT22;6416;52.182;7.650;2023-05-09T12:13:47;27.50;52.50
12704;DHT22;6416;52.182;7.650;2023-05-09T12:16:14;27.60;52.10
12704;DHT22;6416;52.182;7.650;2023-05-09T12:18:47;27.70;53.40
12704;DHT22;6416;52.182;7.650;2023-05-09T12:21:13;27.80;52.50
12704;DHT22;6416;52.182;7.650;2023-05-09T12:23:39;28.00;52.40
12704;DHT22;6416;52.182;7.650;2023-05-09T12:26:04;28.20;52.90
12704;DHT22;6416;52.182;7.650;2023-05-09T12:28:30;28.30;52.60
12704;DHT22;6416;52.182;7.650;2023-05-09T12:30:55;28.50;51.60
12704;DHT22;6416;52.182;7.650;2023-05-09T12:33:21;28.50;51.60
12704;DHT22;6416;52.182;7.650;2023-05-09T12:36:06;28.60;50.40
12704;DHT22;6416;52.182;7.650;2023-05-09T12:38:32;28.50;49.80
12704;DHT22;6416;52.182;7.650;2023-05-09T12:43:29;28.40;50.60
12704;DHT22;6416;52.182;7.650;2023-05-09T12:45:56;28.40;51.40
12704;DHT22;6416;52.182;7.650;2023-05-09T12:48:21;28.50;50.30
12704;DHT22;6416;52.182;7.650;2023-05-09T12:50:47;28.60;50.70
12704;DHT22;6416;52.182;7.650;2023-05-09T12:53:25;28.70;50.80
12704;DHT22;6416;52.182;7.650;2023-05-09T12:56:00;28.80;49.80
12704;DHT22;6416;52.182;7.650;2023-05-09T12:58:29;28.80;49.30
12704;DHT22;6416;52.182;7.650;2023-05-09T13:00:54;28.70;48.80
12704;DHT22;6416;52.182;7.650;2023-05-09T13:03:21;28.60;48.70
12704;DHT22;6416;52.182;7.650;2023-05-09T13:05:59;28.40;48.60
12704;DHT22;6416;52.182;7.650;2023-05-09T13:08:26;28.20;48.90
12704;DHT22;6416;52.182;7.650;2023-05-09T13:10:52;28.00;48.80
12704;DHT22;6416;52.182;7.650;2023-05-09T13:13:18;27.70;48.60
12704;DHT22;6416;52.182;7.650;2023-05-09T13:15:43;27.60;48.90
12704;DHT22;6416;52.182;7.650;2023-05-09T13:18:10;27.40;49.20
12704;DHT22;6416;52.182;7.650;2023-05-09T13:20:36;27.20;49.30
12704;DHT22;6416;52.182;7.650;2023-05-09T13:23:01;27.10;49.70
12704;DHT22;6416;52.182;7.650;2023-05-09T13:25:27;26.90;50.00
12704;DHT22;6416;52.182;7.650;2023-05-09T13:27:52;26.90;50.60
12704;DHT22;6416;52.182;7.650;2023-05-09T13:30:18;26.80;51.00
12704;DHT22;6416;52.182;7.650;2023-05-09T13:32:43;26.80;51.10
12704;DHT22;6416;52.182;7.650;2023-05-09T13:35:09;26.70;51.30
12704;DHT22;6416;52.182;7.650;2023-05-09T13:37:34;26.70;51.20
12704;DHT22;6416;52.182;7.650;2023-05-09T13:40:00;26.60;51.30
12704;DHT22;6416;52.182;7.650;2023-05-09T13:42:26;26.50;51.30
12704;DHT22;6416;52.182;7.650;2023-05-09T13:44:52;26.40;51.80
12704;DHT22;6416;52.182;7.650;2023-05-09T13:47:17;26.30;52.80
12704;DHT22;6416;52.182;7.650;2023-05-09T13:49:43;26.10;53.20
12704;DHT22;6416;52.182;7.650;2023-05-09T13:52:08;25.90;53.40
12704;DHT22;6416;52.182;7.650;2023-05-09T13:54:34;25.70;53.60
12704;DHT22;6416;52.182;7.650;2023-05-09T13:57:09;25.60;54.10
12704;DHT22;6416;52.182;7.650;2023-05-09T13:59:34;25.40;54.50
12704;DHT22;6416;52.182;7.650;2023-05-09T14:02:00;25.30;53.90
12704;DHT22;6416;52.182;7.650;2023-05-09T14:04:27;25.20;54.30
12704;DHT22;6416;52.182;7.650;2023-05-09T14:06:53;25.10;54.40
12704;DHT22;6416;52.182;7.650;2023-05-09T14:09:19;25.00;54.70
12704;DHT22;6416;52.182;7.650;2023-05-09T14:11:44;24.90;55.30
12704;DHT22;6416;52.182;7.650;2023-05-09T14:14:10;24.80;55.60
12704;DHT22;6416;52.182;7.650;2023-05-09T14:16:36;24.60;55.70
12704;DHT22;6416;52.182;7.650;2023-05-09T14:19:01;24.50;55.60
12704;DHT22;6416;52.182;7.650;2023-05-09T14:21:26;24.40;55.80
12704;DHT22;6416;52.182;7.650;2023-05-09T14:23:52;24.20;55.90
12704;DHT22;6416;52.182;7.650;2023-05-09T14:26:17;24.20;56.30
12704;DHT22;6416;52.182;7.650;2023-05-09T14:28:43;24.10;56.50
12704;DHT22;6416;52.182;7.650;2023-05-09T14:31:08;24.00;57.60
12704;DHT22;6416;52.182;7.650;2023-05-09T14:33:34;24.00;57.50
12704;DHT22;6416;52.182;7.650;2023-05-09T14:35:59;23.90;60.30
12704;DHT22;6416;52.182;7.650;2023-05-09T14:38:25;23.70;63.90
12704;DHT22;6416;52.182;7.650;2023-05-09T14:40:50;23.40;65.50
12704;DHT22;6416;52.182;7.650;2023-05-09T14:43:16;23.10;66.90
12704;DHT22;6416;52.182;7.650;2023-05-09T14:45:41;22.70;68.10
12704;DHT22;6416;52.182;7.650;2023-05-09T14:48:07;22.30;69.70
12704;DHT22;6416;52.182;7.650;2023-05-09T14:50:32;22.00;71.20
12704;DHT22;6416;52.182;7.650;2023-05-09T14:52:58;21.80;72.80
12704;DHT22;6416;52.182;7.650;2023-05-09T14:55:23;21.60;74.10
12704;DHT22;6416;52.182;7.650;2023-05-09T14:57:49;21.40;75.10
12704;DHT22;6416;52.182;7.650;2023-05-09T15:00:14;21.30;76.20
12704;DHT22;6416;52.182;7.650;2023-05-09T15:02:40;21.20;77.20
12704;DHT22;6416;52.182;7.650;2023-05-09T15:05:06;21.20;78.90
12704;DHT22;6416;52.182;7.650;2023-05-09T15:07:32;21.10;78.90
12704;DHT22;6416;52.182;7.650;2023-05-09T15:09:58;21.10;79.50
12704;DHT22;6416;52.182;7.650;2023-05-09T15:12:23;21.10;80.10
12704;DHT22;6416;52.182;7.650;2023-05-09T15:14:49;21.00;80.40
12704;DHT22;6416;52.182;7.650;2023-05-09T15:17:14;21.00;80.90
12704;DHT22;6416;52.182;7.650;2023-05-09T15:19:40;20.90;81.20
12704;DHT22;6416;52.182;7.650;2023-05-09T15:22:06;20.90;81.90
12704;DHT22;6416;52.182;7.650;2023-05-09T15:24:32;20.90;82.60
12704;DHT22;6416;52.182;7.650;2023-05-09T15:26:57;20.90;83.00
12704;DHT22;6416;52.182;7.650;2023-05-09T15:29:23;20.90;83.50
12704;DHT22;6416;52.182;7.650;2023-05-09T15:31:48;20.90;84.00
12704;DHT22;6416;52.182;7.650;2023-05-09T15:34:14;20.90;84.60
12704;DHT22;6416;52.182;7.650;2023-05-09T15:36:39;20.90;84.90
12704;DHT22;6416;52.182;7.650;2023-05-09T15:39:05;20.90;85.20
12704;DHT22;6416;52.182;7.650;2023-05-09T15:41:30;20.90;85.60
12704;DHT22;6416;52.182;7.650;2023-05-09T15:43:56;20.90;86.10
12704;DHT22;6416;52.182;7.650;2023-05-09T15:46:22;20.90;86.60
12704;DHT22;6416;52.182;7.650;2023-05-09T15:48:47;20.90;87.00
12704;DHT22;6416;52.182;7.650;2023-05-09T15:51:13;20.80;87.10
12704;DHT22;6416;52.182;7.650;2023-05-09T15:53:38;20.90;87.50
12704;DHT22;6416;52.182;7.650;2023-05-09T15:56:04;20.80;88.00
12704;DHT22;6416;52.182;7.650;2023-05-09T15:58:30;20.80;88.30
12704;DHT22;6416;52.182;7.650;2023-05-09T16:00:55;20.80;88.80
12704;DHT22;6416;52.182;7.650;2023-05-09T16:03:21;20.90;89.70
12704;DHT22;6416;52.182;7.650;2023-05-09T16:05:46;20.80;90.10
12704;DHT22;6416;52.182;7.650;2023-05-09T16:08:12;20.80;90.10